Time;durP1;ratioP1;P1;durP2;ratioP2;P2;SDS_P1;SDS_P2;PMS_P1;PMS_P2;Temp;Humidity;BMP_temperature;BMP_pressure;BME280_temperature;BME280_humidity;BME280_pressure;Samples;Min_cycle;Max_cycle;Signal;HPM_P1;HPM_P2
2021/06/21 00:01:12;;;;;;;19.75;18.15;;;;;;;18.82;100.00;97059.13;5074124;28;20233;-81
2021/06/21 00:03:39;;;;;;;19.23;17.77;;;;;;;18.72;100.00;97047.69;5074867;28;20217;-81
2021/06/21 00:06:05;;;;;;;20.10;18.40;;;;;;;18.50;100.00;97052.22;5072416;28;20228;-81
2021/06/21 00:08:32;;;;;;;20.15;18.48;;;;;;;18.77;100.00;97050.75;5077290;28;20217;-81
2021/06/21 00:10:59;;;;;;;20.00;18.48;;;;;;;18.91;100.00;97042.44;5074965;28;20240;-81
2021/06/21 00:13:25;;;;;;;20.55;18.85;;;;;;;18.93;100.00;97026.44;5075774;28;20214;-80
2021/06/21 00:15:53;;;;;;;20.60;18.85;;;;;;;18.82;100.00;97019.50;5072444;28;21012;-81
2021/06/21 00:18:21;;;;;;;20.67;18.77;;;;;;;19.01;100.00;97026.59;5073631;28;20898;-81
2021/06/21 00:20:49;;;;;;;21.50;19.33;;;;;;;18.80;100.00;97040.75;5073682;28;20245;-81
2021/06/21 00:23:15;;;;;;;21.27;19.25;;;;;;;18.27;100.00;97046.34;5073234;28;20329;-81
2021/06/21 00:25:42;;;;;;;21.40;19.33;;;;;;;18.46;100.00;97045.56;5071897;28;20241;-81
2021/06/21 00:28:09;;;;;;;22.23;20.02;;;;;;;18.43;100.00;97049.28;5073098;28;20210;-81
2021/06/21 00:30:35;;;;;;;22.48;20.38;;;;;;;18.53;100.00;97048.47;5075150;28;20617;-81
2021/06/21 00:33:02;;;;;;;21.77;19.73;;;;;;;18.51;100.00;97038.06;5075061;28;20208;-81
2021/06/21 00:35:30;;;;;;;22.48;20.40;;;;;;;18.32;100.00;97051.22;5074038;28;20771;-81
2021/06/21 00:37:57;;;;;;;20.70;18.65;;;;;;;18.40;100.00;97043.47;5075054;28;20421;-81
2021/06/21 00:40:24;;;;;;;20.40;18.73;;;;;;;18.52;100.00;97037.09;5076216;28;21108;-81
2021/06/21 00:42:50;;;;;;;18.20;16.77;;;;;;;18.44;100.00;97018.47;5073195;28;20244;-81
2021/06/21 00:45:20;;;;;;;20.73;18.88;;;;;;;18.29;100.00;97032.03;5072419;28;20221;-81
2021/06/21 00:47:47;;;;;;;21.27;19.33;;;;;;;18.35;100.00;97029.84;5077797;28;20228;-81
2021/06/21 00:50:14;;;;;;;20.20;18.60;;;;;;;18.32;100.00;97035.38;5072795;28;20233;-81
2021/06/21 00:52:43;;;;;;;37.65;21.33;;;;;;;18.29;100.00;97037.31;5072561;28;20241;-81
2021/06/21 00:55:11;;;;;;;22.05;20.15;;;;;;;18.52;100.00;97009.84;5073667;28;20771;-81
2021/06/21 00:57:38;;;;;;;23.42;21.33;;;;;;;18.45;100.00;97009.56;5075898;28;20221;-81
2021/06/21 01:00:08;;;;;;;22.63;20.67;;;;;;;18.35;100.00;97016.63;5074290;28;20213;-80
2021/06/21 01:02:35;;;;;;;22.38;20.48;;;;;;;18.52;100.00;97021.25;5075077;28;20632;-81
2021/06/21 01:05:02;;;;;;;24.48;20.33;;;;;;;18.44;100.00;97013.19;5073759;28;20222;-80
2021/06/21 01:07:28;;;;;;;27.75;21.40;;;;;;;18.45;100.00;97022.75;5073570;28;20241;-81
2021/06/21 01:09:56;;;;;;;22.08;20.15;;;;;;;18.33;100.00;97021.22;5075903;28;20713;-81
2021/06/21 01:12:35;;;;;;;32.65;22.40;;;;;;;18.24;100.00;97028.97;5072043;28;20255;-81
2021/06/21 01:15:06;;;;;;;22.88;20.77;;;;;;;18.46;100.00;97037.63;5073673;28;20200;-81
2021/06/21 01:17:34;;;;;;;22.17;20.27;;;;;;;18.60;100.00;97037.25;5075416;28;20229;-81
2021/06/21 01:20:16;;;;;;;29.63;22.88;;;;;;;18.58;100.00;97040.97;5075901;28;20217;-80
2021/06/21 01:23:10;;;;;;;26.08;23.55;;;;;;;18.40;100.00;97044.28;5075980;28;20736;-81
2021/06/21 01:25:40;;;;;;;29.48;24.63;;;;;;;18.04;100.00;97037.78;5075647;28;20233;-81
2021/06/21 01:28:09;;;;;;;26.05;23.52;;;;;;;18.04;100.00;97043.06;5075049;28;20220;-80
2021/06/21 01:30:47;;;;;;;26.85;24.25;;;;;;;18.11;100.00;97052.94;5076905;28;20244;-80
2021/06/21 01:33:15;;;;;;;25.75;23.35;;;;;;;18.17;100.00;97063.94;5073829;28;20687;-81
2021/06/21 01:35:46;;;;;;;26.95;23.23;;;;;;;18.12;100.00;97066.97;5072734;28;20233;-80
2021/06/21 01:38:14;;;;;;;25.75;23.13;;;;;;;18.01;100.00;97064.44;5074938;28;20231;-80
2021/06/21 01:40:43;;;;;;;25.25;22.65;;;;;;;18.17;100.00;97071.88;5072012;28;20232;-81
2021/06/21 01:43:13;;;;;;;25.02;22.63;;;;;;;18.46;100.00;97075.44;5072571;28;20652;-81
2021/06/21 01:45:40;;;;;;;25.48;23.25;;;;;;;18.26;100.00;97061.34;5071931;28;20237;-81
2021/06/21 01:48:07;;;;;;;24.10;21.80;;;;;;;18.54;100.00;97056.25;5073422;28;20209;-80
2021/06/21 01:50:35;;;;;;;24.98;22.77;;;;;;;18.38;100.00;97061.22;5072485;28;20241;-80
2021/06/21 01:53:07;;;;;;;24.10;21.73;;;;;;;18.17;100.00;97053.38;5074343;28;20217;-81
2021/06/21 01:55:34;;;;;;;24.63;22.30;;;;;;;18.39;100.00;97073.47;5074597;28;20236;-81
2021/06/21 01:58:01;;;;;;;24.02;21.67;;;;;;;18.38;100.00;97067.38;5070490;28;20221;-81
2021/06/21 02:00:28;;;;;;;25.80;22.83;;;;;;;17.95;100.00;97072.88;5073792;28;20271;-81
2021/06/21 02:02:57;;;;;;;30.35;22.15;;;;;;;18.07;100.00;97075.31;5075208;28;20221;-81
2021/06/21 02:05:24;;;;;;;69.25;24.35;;;;;;;18.06;100.00;97078.06;5073504;28;20217;-80
2021/06/21 02:07:52;;;;;;;24.48;22.05;;;;;;;18.12;100.00;97090.72;5071704;28;20225;-81
2021/06/21 02:10:20;;;;;;;25.60;23.15;;;;;;;17.89;100.00;97088.25;5073384;28;20209;-81
2021/06/21 02:12:47;;;;;;;26.48;23.73;;;;;;;17.96;100.00;97093.00;5073637;28;20232;-81
2021/06/21 02:15:14;;;;;;;26.15;23.65;;;;;;;17.70;100.00;97107.44;5072214;28;20218;-81
2021/06/21 02:17:41;;;;;;;28.27;25.30;;;;;;;17.65;100.00;97116.69;5073340;28;20705;-81
2021/06/21 02:20:10;;;;;;;26.45;23.90;;;;;;;17.77;100.00;97105.09;5072543;28;20200;-79
2021/06/21 02:22:37;;;;;;;25.58;23.27;;;;;;;17.70;100.00;97112.69;5072938;28;20233;-80
2021/06/21 02:25:07;;;;;;;24.30;21.75;;;;;;;18.00;100.00;97103.19;5075893;28;20213;-81
2021/06/21 02:27:36;;;;;;;24.88;22.38;;;;;;;18.02;100.00;97105.69;5072872;28;20233;-81
2021/06/21 02:30:06;;;;;;;25.73;22.70;;;;;;;17.89;100.00;97117.28;5072847;28;20208;-80
2021/06/21 02:32:33;;;;;;;23.83;21.85;;;;;;;18.03;100.00;97109.97;5070980;28;20722;-80
2021/06/21 02:34:59;;;;;;;23.20;21.00;;;;;;;17.93;100.00;97117.84;5073306;28;20231;-81
2021/06/21 02:37:26;;;;;;;22.77;20.88;;;;;;;17.76;100.00;97119.25;5072668;28;20236;-81
2021/06/21 02:39:53;;;;;;;22.33;20.40;;;;;;;17.75;100.00;97124.66;5075055;28;20209;-81
2021/06/21 02:42:21;;;;;;;23.17;20.95;;;;;;;17.67;100.00;97130.59;5076229;28;20239;-80
2021/06/21 02:44:48;;;;;;;21.48;19.83;;;;;;;17.72;100.00;97133.66;5071604;28;20223;-81
2021/06/21 02:47:15;;;;;;;23.55;21.50;;;;;;;17.78;100.00;97141.06;5072730;28;20238;-80
2021/06/21 02:49:42;;;;;;;23.27;21.05;;;;;;;17.72;100.00;97133.66;5073263;28;20227;-81
2021/06/21 02:52:15;;;;;;;23.42;21.30;;;;;;;17.59;100.00;97135.63;5073538;28;20267;-80
2021/06/21 02:54:45;;;;;;;23.52;21.33;;;;;;;17.41;100.00;97140.66;5075503;28;20746;-81
2021/06/21 02:57:18;;;;;;;23.48;21.45;;;;;;;17.52;100.00;97130.88;5078075;28;20232;-80
2021/06/21 02:59:46;;;;;;;23.73;21.48;;;;;;;17.43;100.00;97138.72;5076324;28;20210;-80
2021/06/21 03:02:16;;;;;;;23.08;20.95;;;;;;;17.44;100.00;97148.28;5074588;28;20248;-81
2021/06/21 03:04:43;;;;;;;23.30;21.30;;;;;;;17.40;100.00;97147.72;5075593;28;20217;-81
2021/06/21 03:07:13;;;;;;;22.58;20.75;;;;;;;17.60;100.00;97145.25;5077442;28;20237;-81
2021/06/21 03:09:41;;;;;;;23.77;21.65;;;;;;;17.30;100.00;97144.19;5077728;28;20212;-81
2021/06/21 03:12:08;;;;;;;23.15;21.30;;;;;;;17.38;100.00;97144.38;5077534;28;20253;-81
2021/06/21 03:14:35;;;;;;;23.92;21.70;;;;;;;17.24;100.00;97144.66;5077125;28;20216;-81
2021/06/21 03:17:06;;;;;;;23.05;20.98;;;;;;;17.40;100.00;97147.72;5077134;28;20282;-81
2021/06/21 03:19:33;;;;;;;24.40;22.05;;;;;;;17.37;100.00;97145.34;5076551;28;20231;-81
2021/06/21 03:22:00;;;;;;;23.45;21.58;;;;;;;17.45;100.00;97150.81;5076460;28;20240;-81
2021/06/21 03:24:27;;;;;;;25.00;22.63;;;;;;;17.63;100.00;97137.09;5076125;28;20743;-84
2021/06/21 03:26:53;;;;;;;24.45;22.20;;;;;;;17.65;100.00;97138.63;5076027;28;20251;-81
2021/06/21 03:29:22;;;;;;;24.23;22.05;;;;;;;17.82;100.00;97134.56;5078192;28;20222;-80
2021/06/21 03:31:50;;;;;;;24.63;22.45;;;;;;;17.73;100.00;97133.53;5076331;28;20236;-81
2021/06/21 03:34:19;;;;;;;25.40;23.05;;;;;;;17.60;100.00;97145.25;5076420;28;20689;-81
2021/06/21 03:36:45;;;;;;;24.90;22.80;;;;;;;17.48;100.00;97155.84;5076636;28;20229;-81
2021/06/21 03:39:12;;;;;;;25.38;22.83;;;;;;;17.28;100.00;97154.00;5076628;28;20216;-80
2021/06/21 03:41:39;;;;;;;26.42;23.80;;;;;;;17.24;100.00;97149.94;5074088;28;20240;-81
2021/06/21 03:44:06;;;;;;;25.77;23.45;;;;;;;17.28;100.00;97161.91;5075533;28;20219;-80
2021/06/21 03:46:32;;;;;;;27.13;24.38;;;;;;;17.61;100.00;97149.53;5075368;28;20235;-80
2021/06/21 03:48:59;;;;;;;25.40;23.00;;;;;;;17.49;100.00;97165.41;5076436;28;20858;-80
2021/06/21 03:51:27;;;;;;;25.38;23.05;;;;;;;17.60;100.00;97166.34;5073758;28;20241;-80
2021/06/21 03:53:54;;;;;;;24.92;22.63;;;;;;;17.87;100.00;97168.50;5075009;28;20225;-81
2021/06/21 03:56:20;;;;;;;25.15;22.95;;;;;;;17.92;100.00;97172.44;5075330;28;20233;-81
2021/06/21 03:58:48;;;;;;;25.48;23.02;;;;;;;18.05;100.00;97176.69;5076735;28;20232;-81
2021/06/21 04:01:15;;;;;;;24.35;22.15;;;;;;;18.03;100.00;97168.03;5078030;28;20661;-80
2021/06/21 04:03:42;;;;;;;24.52;22.48;;;;;;;17.85;100.00;97160.72;5076495;28;20216;-80
2021/06/21 04:06:09;;;;;;;25.63;23.42;;;;;;;17.51;100.00;97168.75;5077207;28;20893;-78
2021/06/21 04:08:37;;;;;;;25.83;23.30;;;;;;;17.53;100.00;97174.75;5074402;28;20300;-80
2021/06/21 04:11:03;;;;;;;26.10;23.70;;;;;;;17.46;100.00;97181.50;5076190;28;21193;-81
2021/06/21 04:13:30;;;;;;;25.27;22.88;;;;;;;17.62;100.00;97180.22;5076673;28;20223;-80
2021/06/21 04:15:57;;;;;;;26.27;23.90;;;;;;;17.80;100.00;97185.78;5076149;28;20238;-80
2021/06/21 04:18:24;;;;;;;24.67;22.48;;;;;;;18.00;100.00;97192.88;5076667;28;20222;-79
2021/06/21 04:20:51;;;;;;;25.50;23.13;;;;;;;17.81;100.00;97204.13;5076056;28;20318;-80
2021/06/21 04:23:17;;;;;;;25.80;23.20;;;;;;;17.65;100.00;97216.91;5076340;28;20370;-80
2021/06/21 04:25:45;;;;;;;24.60;22.42;;;;;;;17.88;100.00;97217.66;5075376;28;20237;-80
2021/06/21 04:28:11;;;;;;;25.67;22.98;;;;;;;17.92;100.00;97222.56;5075907;28;20204;-80
2021/06/21 04:30:39;;;;;;;23.83;21.77;;;;;;;17.92;100.00;97219.91;5074827;28;20814;-80
2021/06/21 04:33:06;;;;;;;24.52;21.98;;;;;;;18.10;100.00;97221.97;5074887;28;20310;-80
2021/06/21 04:35:32;;;;;;;22.50;20.63;;;;;;;17.93;100.00;97226.00;5075183;28;20236;-80
2021/06/21 04:37:59;;;;;;;24.65;22.35;;;;;;;18.05;100.00;97218.91;5075769;28;20209;-80
2021/06/21 04:40:28;;;;;;;25.38;23.00;;;;;;;17.94;100.00;97221.56;5072335;28;20240;-80
2021/06/21 04:42:56;;;;;;;25.20;22.92;;;;;;;17.83;100.00;97218.00;5077336;28;20615;-79
2021/06/21 04:45:22;;;;;;;24.75;22.30;;;;;;;17.86;100.00;97225.69;5077320;28;20698;-80
2021/06/21 04:47:49;;;;;;;25.20;22.92;;;;;;;18.00;100.00;97226.34;5078611;28;20220;-80
2021/06/21 04:50:18;;;;;;;24.05;21.95;;;;;;;17.97;100.00;97234.50;5076371;28;20837;-80
2021/06/21 04:52:46;;;;;;;24.38;22.27;;;;;;;18.01;100.00;97230.66;5072807;28;20245;-80
2021/06/21 04:55:15;;;;;;;24.33;22.20;;;;;;;18.13;100.00;97223.53;5073508;28;20777;-79
2021/06/21 04:57:42;;;;;;;25.17;23.00;;;;;;;18.04;100.00;97222.47;5075989;28;20219;-80
2021/06/21 05:00:12;;;;;;;24.50;22.38;;;;;;;18.36;100.00;97232.13;5073085;28;20216;-79
2021/06/21 05:02:39;;;;;;;23.90;21.85;;;;;;;18.21;100.00;97229.81;5059930;28;20239;-80
2021/06/21 05:05:06;;;;;;;23.23;21.35;;;;;;;18.48;100.00;97234.56;5077491;28;20205;-80
2021/06/21 05:07:33;;;;;;;22.83;20.85;;;;;;;18.50;100.00;97245.81;5074992;28;20686;-80
2021/06/21 05:09:59;;;;;;;23.40;21.40;;;;;;;18.32;100.00;97236.81;5071262;28;20213;-80
2021/06/21 05:12:26;;;;;;;22.55;20.50;;;;;;;18.50;100.00;97239.69;5076025;28;20745;-80
2021/06/21 05:14:52;;;;;;;23.33;21.20;;;;;;;18.39;100.00;97242.44;5075901;28;20602;-80
2021/06/21 05:17:20;;;;;;;23.08;20.65;;;;;;;18.49;100.00;97249.44;5075078;28;20232;-80
2021/06/21 05:19:47;;;;;;;24.40;22.20;;;;;;;18.36;100.00;97245.31;5077155;28;20216;-80
2021/06/21 05:22:13;;;;;;;21.77;20.08;;;;;;;18.56;100.00;97244.44;5076793;28;20268;-80
2021/06/21 05:24:40;;;;;;;21.55;20.00;;;;;;;18.26;100.00;97238.19;5073553;28;21150;-80
2021/06/21 05:27:07;;;;;;;21.10;19.35;;;;;;;18.55;100.00;97242.78;5079535;28;20241;-80
2021/06/21 05:29:34;;;;;;;21.10;19.25;;;;;;;18.56;100.00;97231.25;5075077;28;20622;-80
2021/06/21 05:32:00;;;;;;;20.58;19.17;;;;;;;18.74;100.00;97235.94;5074739;28;20243;-81
2021/06/21 05:34:28;;;;;;;22.45;20.65;;;;;;;18.81;100.00;97237.94;5075287;28;20223;-80
2021/06/21 05:36:55;;;;;;;21.88;20.17;;;;;;;18.80;100.00;97232.75;5075915;28;20235;-80
2021/06/21 05:39:22;;;;;;;21.75;19.85;;;;;;;18.74;100.00;97225.38;5076654;28;20213;-80
2021/06/21 05:41:49;;;;;;;21.50;19.85;;;;;;;19.06;100.00;97220.78;5071632;28;20250;-80
2021/06/21 05:44:15;;;;;;;21.50;19.80;;;;;;;19.28;100.00;97218.88;5076737;28;20220;-80
2021/06/21 05:46:42;;;;;;;21.15;19.27;;;;;;;19.15;100.00;97224.44;5074471;28;20245;-82
2021/06/21 05:49:09;;;;;;;20.40;18.83;;;;;;;19.26;100.00;97215.50;5077578;28;20300;-84
2021/06/21 05:51:36;;;;;;;20.55;18.85;;;;;;;18.93;100.00;97214.91;5075364;28;20237;-83
2021/06/21 05:54:03;;;;;;;21.02;18.92;;;;;;;19.33;100.00;97224.56;5070790;28;21054;-80
2021/06/21 05:56:30;;;;;;;19.17;17.77;;;;;;;19.39;100.00;97231.97;5072648;28;20623;-80
2021/06/21 05:58:56;;;;;;;20.13;18.30;;;;;;;19.23;100.00;97231.66;5074222;28;20606;-79
2021/06/21 06:01:23;;;;;;;20.13;18.45;;;;;;;19.25;100.00;97229.72;5074523;28;20344;-80
2021/06/21 06:03:51;;;;;;;20.08;18.50;;;;;;;18.93;100.00;97248.41;5074776;28;20686;-80
2021/06/21 06:06:17;;;;;;;28.42;25.90;;;;;;;18.69;100.00;97254.78;5074821;28;20237;-80
2021/06/21 06:08:45;;;;;;;20.10;18.35;;;;;;;19.31;100.00;97245.03;5077041;28;20227;-80
2021/06/21 06:11:11;;;;;;;19.90;17.98;;;;;;;19.51;100.00;97251.19;5077060;28;20718;-79
2021/06/21 06:13:38;;;;;;;20.45;18.65;;;;;;;19.10;100.00;97249.56;5076628;28;20229;-80
2021/06/21 06:16:05;;;;;;;19.13;17.30;;;;;;;19.05;100.00;97256.09;5076849;28;20248;-80
2021/06/21 06:18:32;;;;;;;18.60;17.23;;;;;;;19.07;100.00;97248.88;5076167;28;20212;-79
2021/06/21 06:20:59;;;;;;;18.67;17.17;;;;;;;18.94;100.00;97253.56;5078376;28;20236;-79
2021/06/21 06:23:25;;;;;;;17.52;16.35;;;;;;;18.95;100.00;97239.38;5076457;28;20209;-79
2021/06/21 06:25:53;;;;;;;17.83;16.50;;;;;;;18.72;100.00;97251.91;5075751;28;20233;-80
2021/06/21 06:28:20;;;;;;;18.00;16.80;;;;;;;18.91;100.00;97248.53;5076952;28;20263;-79
2021/06/21 06:30:46;;;;;;;17.98;16.67;;;;;;;19.05;100.00;97248.16;5076044;28;20229;-80
2021/06/21 06:33:13;;;;;;;17.73;16.50;;;;;;;19.27;100.00;97259.50;5075677;28;20366;-79
2021/06/21 06:35:40;;;;;;;17.33;16.05;;;;;;;19.37;100.00;97260.38;5077318;28;20714;-79
2021/06/21 06:38:06;;;;;;;18.23;16.65;;;;;;;19.43;100.00;97264.28;5097718;28;20220;-79
2021/06/21 06:40:33;;;;;;;31.30;27.92;;;;;;;18.87;100.00;97269.09;5075004;28;20236;-79
2021/06/21 06:43:01;;;;;;;17.02;15.82;;;;;;;19.12;100.00;97272.25;5075912;28;20237;-79
2021/06/21 06:45:27;;;;;;;17.10;15.75;;;;;;;19.44;99.66;97269.41;5076669;28;20306;-79
2021/06/21 06:47:54;;;;;;;17.48;16.00;;;;;;;19.23;98.57;97263.41;5077344;28;20224;-79
2021/06/21 06:50:21;;;;;;;16.92;15.60;;;;;;;19.42;100.00;97270.53;5076348;28;20215;-80
2021/06/21 06:52:48;;;;;;;17.08;15.75;;;;;;;19.63;100.00;97270.44;5074178;28;20749;-79
2021/06/21 06:57:59;;;;;;;17.00;15.80;;;;;;;19.67;100.00;97290.34;5076556;28;20689;-79
2021/06/21 07:00:27;;;;;;;18.30;16.50;;;;;;;19.71;100.00;97289.09;5075272;28;20357;-79
2021/06/21 07:02:53;;;;;;;17.17;16.00;;;;;;;19.73;100.00;97284.53;5073527;28;20234;-79
2021/06/21 07:05:20;;;;;;;17.30;16.10;;;;;;;19.45;94.65;97284.31;5076540;28;20212;-79
2021/06/21 07:07:46;;;;;;;16.75;15.52;;;;;;;19.85;95.77;97279.94;5076662;28;20223;-79
2021/06/21 07:10:14;;;;;;;17.83;16.42;;;;;;;19.84;99.23;97279.09;5076053;28;20212;-79
2021/06/21 07:12:40;;;;;;;17.40;16.02;;;;;;;19.89;97.68;97286.63;5072937;28;20233;-79
2021/06/21 07:15:08;;;;;;;17.30;15.90;;;;;;;19.75;94.47;97279.09;5073227;28;20214;-77
2021/06/21 07:17:36;;;;;;;17.23;15.98;;;;;;;19.89;96.31;97272.53;5075938;28;21064;-79
2021/06/21 07:20:03;;;;;;;17.35;15.85;;;;;;;20.17;99.64;97284.94;5077224;28;20215;-79
2021/06/21 07:22:30;;;;;;;16.80;15.60;;;;;;;20.18;94.23;97270.75;5073431;28;20248;-79
2021/06/21 07:24:56;;;;;;;16.83;15.75;;;;;;;20.15;97.63;97265.72;5076558;28;20209;-80
2021/06/21 07:27:25;;;;;;;17.23;15.77;;;;;;;19.98;90.07;97271.75;5073861;28;20928;-80
2021/06/21 07:29:52;;;;;;;17.27;15.70;;;;;;;20.37;93.06;97275.16;5077635;28;20206;-79
2021/06/21 07:32:19;;;;;;;26.58;24.17;;;;;;;20.22;91.97;97271.31;5076284;28;20236;-79
2021/06/21 07:34:47;;;;;;;17.25;16.15;;;;;;;20.17;90.50;97271.72;5075416;28;20218;-79
2021/06/21 07:37:13;;;;;;;17.10;15.80;;;;;;;20.42;90.13;97266.81;5072759;28;20237;-79
2021/06/21 07:39:40;;;;;;;17.85;16.20;;;;;;;20.39;91.32;97272.38;5079236;28;20220;-79
2021/06/21 07:42:07;;;;;;;16.88;15.63;;;;;;;20.73;93.06;97271.91;5076120;28;20245;-79
2021/06/21 07:44:35;;;;;;;16.48;15.18;;;;;;;20.80;94.90;97275.63;5077525;28;20213;-79
2021/06/21 07:47:01;;;;;;;16.80;15.55;;;;;;;20.74;88.78;97270.94;5077753;28;20283;-79
2021/06/21 07:49:28;;;;;;;17.08;15.52;;;;;;;20.83;98.03;97269.22;5078379;28;20216;-79
2021/06/21 07:51:56;;;;;;;16.95;15.50;;;;;;;20.79;87.00;97264.22;5077207;28;20251;-79
2021/06/21 07:54:23;;;;;;;16.45;15.20;;;;;;;20.68;87.72;97263.56;5079442;28;20592;-79
2021/06/21 07:56:49;;;;;;;16.88;15.50;;;;;;;20.81;85.59;97266.72;5078011;28;20237;-79
2021/06/21 07:59:16;;;;;;;16.73;15.70;;;;;;;20.93;84.78;97268.19;5078504;28;20223;-79
2021/06/21 08:01:42;;;;;;;16.30;15.18;;;;;;;20.87;87.18;97266.13;5077441;28;20244;-79
2021/06/21 08:04:09;;;;;;;17.33;16.08;;;;;;;21.14;83.83;97261.84;5078949;28;20213;-80
2021/06/21 08:06:37;;;;;;;16.13;14.82;;;;;;;21.02;82.27;97263.00;5079660;28;20595;-79
2021/06/21 08:09:05;;;;;;;15.93;14.93;;;;;;;21.10;92.23;97266.59;5077799;28;20213;-79
2021/06/21 08:11:32;;;;;;;16.20;15.10;;;;;;;20.78;85.99;97267.00;5078336;28;20919;-79
2021/06/21 08:13:58;;;;;;;16.38;15.18;;;;;;;20.82;84.94;97268.38;5078311;28;20404;-79
2021/06/21 08:16:26;;;;;;;16.17;15.05;;;;;;;20.83;94.45;97272.72;5079145;28;20237;-79
2021/06/21 08:18:52;;;;;;;16.13;14.93;;;;;;;21.08;91.09;97273.00;5079110;28;20266;-79
2021/06/21 08:21:19;;;;;;;16.70;15.60;;;;;;;21.15;92.45;97271.44;5079165;28;20258;-80
2021/06/21 08:23:46;;;;;;;16.92;15.60;;;;;;;21.17;85.04;97266.81;5076792;28;20213;-79
2021/06/21 08:26:13;;;;;;;15.98;14.77;;;;;;;21.08;83.61;97257.97;5077493;28;20595;-80
2021/06/21 08:29:46;;;;;;;16.17;15.05;;;;;;;21.31;84.22;97257.56;5071491;27;759372;-79
2021/06/21 08:32:13;;;;;;;17.00;15.60;;;;;;;21.32;82.21;97254.75;5054244;27;20711;-77
2021/06/21 08:34:40;;;;;;;16.15;14.95;;;;;;;21.72;85.01;97263.31;5048106;28;20619;-78
2021/06/21 08:37:07;;;;;;;16.10;14.88;;;;;;;21.61;79.40;97267.00;5048039;28;20234;-78
2021/06/21 08:39:36;;;;;;;16.23;14.95;;;;;;;21.69;85.89;97264.47;5048479;28;20210;-78
2021/06/21 08:42:03;;;;;;;16.70;15.32;;;;;;;21.85;80.88;97260.28;5046755;28;20754;-78
2021/06/21 08:44:29;;;;;;;17.13;15.80;;;;;;;21.59;78.93;97271.63;5048835;28;20223;-78
2021/06/21 08:46:57;;;;;;;16.55;15.45;;;;;;;21.77;82.52;97270.84;5046556;28;20240;-78
2021/06/21 08:49:24;;;;;;;16.63;15.50;;;;;;;21.84;78.12;97270.06;5047308;28;20238;-78
2021/06/21 08:51:52;;;;;;;16.95;15.45;;;;;;;21.88;76.65;97267.94;5047182;28;20241;-78
2021/06/21 08:54:19;;;;;;;16.95;15.55;;;;;;;21.99;79.97;97273.03;5045956;28;20226;-77
2021/06/21 08:56:45;;;;;;;16.02;14.68;;;;;;;21.83;79.50;97276.34;5046660;28;20255;-78
2021/06/21 08:59:12;;;;;;;15.95;14.80;;;;;;;21.96;80.37;97268.00;5046495;28;20210;-78
2021/06/21 09:01:40;;;;;;;16.70;15.30;;;;;;;21.84;77.04;97270.06;5047630;28;20241;-79
2021/06/21 09:04:10;;;;;;;17.10;15.43;;;;;;;22.09;78.29;97268.47;5049566;28;20218;-78
2021/06/21 09:06:39;;;;;;;16.92;15.48;;;;;;;22.00;76.69;97282.69;5047549;28;20237;-77
2021/06/21 09:09:06;;;;;;;16.17;15.05;;;;;;;22.13;76.33;97280.47;5046917;28;20238;-77
2021/06/21 09:11:54;;;;;;;16.55;15.15;;;;;;;22.52;78.15;97271.31;5046957;28;20230;-77
2021/06/21 09:14:31;;;;;;;17.05;15.45;;;;;;;22.73;78.20;97270.94;5046287;28;20276;-78
2021/06/21 09:16:59;;;;;;;17.17;15.70;;;;;;;22.60;78.89;97260.72;5048313;28;20242;-77
2021/06/21 09:19:27;;;;;;;17.20;15.60;;;;;;;22.38;79.23;97266.56;5047545;28;20301;-77
2021/06/21 09:21:54;;;;;;;17.67;16.23;;;;;;;22.59;73.21;97259.06;5047033;28;20238;-79
2021/06/21 09:24:22;;;;;;;17.20;15.80;;;;;;;22.53;72.72;97254.38;5049214;28;20210;-77
2021/06/21 09:26:50;;;;;;;17.05;15.88;;;;;;;22.91;72.21;97257.56;5047917;28;20238;-80
2021/06/21 09:29:17;;;;;;;16.33;15.18;;;;;;;22.98;72.39;97265.75;5048269;28;20835;-78
2021/06/21 09:31:51;;;;;;;17.23;15.85;;;;;;;22.74;76.91;97266.47;5046731;28;20241;-77
2021/06/21 09:34:19;;;;;;;16.90;15.60;;;;;;;22.80;78.75;97263.16;5045993;28;20260;-77
2021/06/21 09:36:47;;;;;;;16.85;15.32;;;;;;;22.75;72.93;97257.50;5047552;28;20237;-77
2021/06/21 09:39:19;;;;;;;17.40;15.90;;;;;;;22.92;73.28;97256.59;5044330;28;20322;-77
2021/06/21 09:42:04;;;;;;;16.77;15.57;;;;;;;23.16;76.34;97245.25;5032798;28;20238;-78
2021/06/21 09:44:31;;;;;;;16.70;15.40;;;;;;;23.24;71.85;97245.28;5033895;28;20261;-77
2021/06/21 09:47:11;;;;;;;16.58;15.40;;;;;;;23.12;68.20;97249.22;5032678;28;20235;-78
2021/06/21 09:49:38;;;;;;;16.40;15.20;;;;;;;23.13;68.85;97256.22;5031716;28;20226;-79
2021/06/21 09:52:06;;;;;;;16.30;15.05;;;;;;;23.05;66.13;97259.66;5033152;28;20245;-78
2021/06/21 09:54:34;;;;;;;16.50;15.10;;;;;;;23.21;67.22;97269.53;5031964;28;20709;-78
2021/06/21 09:57:13;;;;;;;16.13;15.05;;;;;;;23.10;66.19;97267.16;5032047;28;20241;-78
2021/06/21 09:59:47;;;;;;;16.15;14.90;;;;;;;23.41;67.10;97255.97;5034202;28;20222;-79
2021/06/21 10:02:21;;;;;;;16.27;15.18;;;;;;;23.77;67.40;97253.06;5032338;28;20239;-79
2021/06/21 10:04:48;;;;;;;16.35;15.13;;;;;;;23.50;65.25;97257.66;5034269;28;20221;-78
2021/06/21 10:07:29;;;;;;;16.00;14.82;;;;;;;23.82;67.78;97261.41;5031087;28;20238;-79
2021/06/21 10:09:58;;;;;;;15.75;14.70;;;;;;;24.18;70.38;97250.44;5032934;28;20242;-79
2021/06/21 10:12:24;;;;;;;16.00;15.00;;;;;;;24.04;67.21;97250.13;5032075;28;20599;-78
2021/06/21 10:14:51;;;;;;;16.55;15.35;;;;;;;24.14;67.16;97251.78;5033041;28;20229;-78
2021/06/21 10:17:17;;;;;;;16.75;15.40;;;;;;;24.33;67.75;97247.94;5032699;28;20226;-78
2021/06/21 10:19:44;;;;;;;16.33;15.15;;;;;;;24.04;61.98;97244.78;5036459;28;20605;-79
2021/06/21 10:22:11;;;;;;;16.35;15.20;;;;;;;23.80;60.28;97244.75;5032197;28;20609;-78
2021/06/21 10:24:39;;;;;;;16.10;14.80;;;;;;;23.87;61.68;97245.75;5031234;28;20219;-78
2021/06/21 10:27:07;;;;;;;15.90;14.77;;;;;;;24.02;61.89;97251.25;5033078;28;20226;-78
2021/06/21 10:29:35;;;;;;;17.48;16.23;;;;;;;23.96;61.63;97242.09;5030948;28;20241;-79
2021/06/21 10:32:04;;;;;;;15.65;14.48;;;;;;;24.28;60.76;97244.94;5032344;28;20242;-79
2021/06/21 10:34:31;;;;;;;15.90;14.77;;;;;;;24.56;59.70;97240.09;5033405;28;20222;-78
2021/06/21 10:36:59;;;;;;;15.55;14.65;;;;;;;24.56;63.56;97237.44;5032934;28;20234;-79
2021/06/21 10:39:28;;;;;;;15.57;14.48;;;;;;;24.62;62.31;97234.09;5032650;28;20308;-79
2021/06/21 10:42:20;;;;;;;15.80;14.80;;;;;;;24.48;60.31;97229.41;5032260;28;20239;-78
2021/06/21 10:44:50;;;;;;;16.48;15.20;;;;;;;24.44;60.86;97234.25;5029309;28;20332;-79
2021/06/21 10:47:39;;;;;;;15.88;14.45;;;;;;;24.65;63.51;97235.56;5034064;28;20723;-78
2021/06/21 10:50:08;;;;;;;15.75;14.75;;;;;;;24.64;63.99;97234.75;5025127;28;20242;-78
2021/06/21 10:53:02;;;;;;;16.05;14.90;;;;;;;24.57;58.92;97233.75;5031507;28;20251;-78
2021/06/21 10:55:41;;;;;;;15.63;14.63;;;;;;;24.51;59.44;97234.41;5027744;28;20234;-78
2021/06/21 10:58:41;;;;;;;16.33;15.18;;;;;;;24.54;58.63;97234.94;5033351;28;20207;-78
2021/06/21 11:01:22;;;;;;;16.50;15.15;;;;;;;24.57;59.85;97231.09;5032584;28;20238;-78
2021/06/21 11:03:49;;;;;;;15.93;14.88;;;;;;;24.77;58.72;97235.03;5031280;28;20317;-79
2021/06/21 11:06:38;;;;;;;15.38;14.52;;;;;;;24.90;58.95;97233.66;5030978;28;20243;-78
2021/06/21 11:09:07;;;;;;;15.50;14.25;;;;;;;24.41;58.62;97230.09;5030978;28;20226;-79
2021/06/21 11:11:43;;;;;;;15.68;14.57;;;;;;;24.89;61.26;97235.50;5031772;28;20237;-78
2021/06/21 11:14:12;;;;;;;16.10;15.00;;;;;;;25.29;63.16;97240.88;5034388;28;20218;-78
2021/06/21 11:16:40;;;;;;;16.55;15.45;;;;;;;24.77;58.18;97237.69;5031700;28;20708;-78
2021/06/21 11:19:30;;;;;;;16.58;15.00;;;;;;;24.98;56.73;97222.97;5033328;28;20261;-79
2021/06/21 11:21:58;;;;;;;15.52;14.52;;;;;;;25.06;58.56;97232.78;5030935;28;20329;-78